sensor_id;sensor_type;location;lat;lon;timestamp;P1;durP1;ratioP1;P2;durP2;ratioP2
21474;SDS011;10899;53.576;9.960;2022-10-31T00:01:54;8.65;;;6.10;;
21474;SDS011;10899;53.576;9.960;2022-10-31T00:04:20;7.90;;;6.18;;
21474;SDS011;10899;53.576;9.960;2022-10-31T00:06:47;7.28;;;6.00;;
21474;SDS011;10899;53.576;9.960;2022-10-31T00:09:14;6.53;;;5.93;;
21474;SDS011;10899;53.576;9.960;2022-10-31T00:11:40;9.90;;;6.43;;
21474;SDS011;10899;53.576;9.960;2022-10-31T00:14:07;7.60;;;6.50;;
21474;SDS011;10899;53.576;9.960;2022-10-31T00:16:33;7.68;;;6.32;;
21474;SDS011;10899;53.576;9.960;2022-10-31T00:19:01;10.25;;;6.15;;
21474;SDS011;10899;53.576;9.960;2022-10-31T00:21:28;7.97;;;6.47;;
21474;SDS011;10899;53.576;9.960;2022-10-31T00:23:56;8.02;;;6.43;;
21474;SDS011;10899;53.576;9.960;2022-10-31T00:26:23;13.52;;;6.43;;
21474;SDS011;10899;53.576;9.960;2022-10-31T00:28:50;9.73;;;6.15;;
21474;SDS011;10899;53.576;9.960;2022-10-31T00:31:16;7.10;;;6.38;;
21474;SDS011;10899;53.576;9.960;2022-10-31T00:33:43;7.15;;;6.45;;
21474;SDS011;10899;53.576;9.960;2022-10-31T00:36:11;6.50;;;5.90;;
21474;SDS011;10899;53.576;9.960;2022-10-31T00:38:38;9.43;;;5.95;;
21474;SDS011;10899;53.576;9.960;2022-10-31T00:41:04;8.02;;;5.72;;
21474;SDS011;10899;53.576;9.960;2022-10-31T00:43:31;7.78;;;5.63;;
21474;SDS011;10899;53.576;9.960;2022-10-31T00:45:57;7.68;;;6.30;;
21474;SDS011;10899;53.576;9.960;2022-10-31T00:48:24;7.65;;;6.32;;
21474;SDS011;10899;53.576;9.960;2022-10-31T00:50:51;7.38;;;5.95;;
21474;SDS011;10899;53.576;9.960;2022-10-31T00:53:17;8.65;;;6.07;;
21474;SDS011;10899;53.576;9.960;2022-10-31T00:55:44;8.30;;;5.90;;
21474;SDS011;10899;53.576;9.960;2022-10-31T00:58:10;7.43;;;5.95;;
21474;SDS011;10899;53.576;9.960;2022-10-31T01:00:37;7.63;;;5.93;;
21474;SDS011;10899;53.576;9.960;2022-10-31T01:03:03;6.53;;;5.82;;
21474;SDS011;10899;53.576;9.960;2022-10-31T01:05:30;6.50;;;5.90;;
21474;SDS011;10899;53.576;9.960;2022-10-31T01:07:56;6.80;;;5.85;;
21474;SDS011;10899;53.576;9.960;2022-10-31T01:10:23;7.00;;;5.95;;
21474;SDS011;10899;53.576;9.960;2022-10-31T01:12:50;6.32;;;5.60;;
21474;SDS011;10899;53.576;9.960;2022-10-31T01:15:18;6.90;;;6.10;;
21474;SDS011;10899;53.576;9.960;2022-10-31T01:17:45;7.75;;;5.85;;
21474;SDS011;10899;53.576;9.960;2022-10-31T01:20:12;8.07;;;6.32;;
21474;SDS011;10899;53.576;9.960;2022-10-31T01:22:38;8.40;;;7.05;;
21474;SDS011;10899;53.576;9.960;2022-10-31T01:25:05;8.70;;;7.22;;
21474;SDS011;10899;53.576;9.960;2022-10-31T01:27:32;11.25;;;8.15;;
21474;SDS011;10899;53.576;9.960;2022-10-31T01:29:59;11.15;;;8.32;;
21474;SDS011;10899;53.576;9.960;2022-10-31T01:32:26;12.95;;;8.27;;
21474;SDS011;10899;53.576;9.960;2022-10-31T01:34:54;11.25;;;8.55;;
21474;SDS011;10899;53.576;9.960;2022-10-31T01:37:21;10.73;;;7.97;;
21474;SDS011;10899;53.576;9.960;2022-10-31T01:39:48;10.25;;;7.07;;
21474;SDS011;10899;53.576;9.960;2022-10-31T01:42:18;12.52;;;7.75;;
21474;SDS011;10899;53.576;9.960;2022-10-31T01:44:51;9.63;;;7.22;;
21474;SDS011;10899;53.576;9.960;2022-10-31T01:47:19;9.60;;;7.20;;
21474;SDS011;10899;53.576;9.960;2022-10-31T01:49:51;10.73;;;7.00;;
21474;SDS011;10899;53.576;9.960;2022-10-31T01:52:29;11.05;;;7.35;;
21474;SDS011;10899;53.576;9.960;2022-10-31T01:55:05;11.20;;;7.60;;
21474;SDS011;10899;53.576;9.960;2022-10-31T01:57:33;8.95;;;7.32;;
21474;SDS011;10899;53.576;9.960;2022-10-31T02:00:04;12.88;;;7.18;;
21474;SDS011;10899;53.576;9.960;2022-10-31T02:02:32;15.57;;;7.55;;
21474;SDS011;10899;53.576;9.960;2022-10-31T02:04:59;12.45;;;6.85;;
21474;SDS011;10899;53.576;9.960;2022-10-31T02:07:30;10.27;;;6.60;;
21474;SDS011;10899;53.576;9.960;2022-10-31T02:09:59;8.50;;;6.68;;
21474;SDS011;10899;53.576;9.960;2022-10-31T02:12:27;11.73;;;6.70;;
21474;SDS011;10899;53.576;9.960;2022-10-31T02:14:54;9.77;;;6.55;;
21474;SDS011;10899;53.576;9.960;2022-10-31T02:17:20;9.35;;;6.45;;
21474;SDS011;10899;53.576;9.960;2022-10-31T02:19:52;8.60;;;6.63;;
21474;SDS011;10899;53.576;9.960;2022-10-31T02:24:58;9.80;;;6.80;;
21474;SDS011;10899;53.576;9.960;2022-10-31T02:30:30;8.20;;;5.85;;
21474;SDS011;10899;53.576;9.960;2022-10-31T02:36:07;8.65;;;6.72;;
21474;SDS011;10899;53.576;9.960;2022-10-31T02:38:49;8.50;;;6.20;;
21474;SDS011;10899;53.576;9.960;2022-10-31T02:49:00;8.45;;;6.65;;
21474;SDS011;10899;53.576;9.960;2022-10-31T02:51:30;8.52;;;6.60;;
21474;SDS011;10899;53.576;9.960;2022-10-31T02:53:56;13.57;;;7.60;;
21474;SDS011;10899;53.576;9.960;2022-10-31T02:56:23;12.48;;;7.65;;
21474;SDS011;10899;53.576;9.960;2022-10-31T03:13:01;11.73;;;7.70;;
21474;SDS011;10899;53.576;9.960;2022-10-31T03:17:32;12.93;;;8.00;;
21474;SDS011;10899;53.576;9.960;2022-10-31T03:20:00;11.82;;;7.57;;
21474;SDS011;10899;53.576;9.960;2022-10-31T03:22:28;11.82;;;7.70;;
21474;SDS011;10899;53.576;9.960;2022-10-31T03:24:55;12.13;;;8.05;;
21474;SDS011;10899;53.576;9.960;2022-10-31T03:27:24;11.73;;;7.63;;
21474;SDS011;10899;53.576;9.960;2022-10-31T03:29:52;12.65;;;7.78;;
21474;SDS011;10899;53.576;9.960;2022-10-31T03:32:27;12.90;;;7.32;;
21474;SDS011;10899;53.576;9.960;2022-10-31T03:34:56;13.07;;;7.43;;
21474;SDS011;10899;53.576;9.960;2022-10-31T03:37:23;11.80;;;7.30;;
21474;SDS011;10899;53.576;9.960;2022-10-31T03:39:51;11.82;;;7.53;;
21474;SDS011;10899;53.576;9.960;2022-10-31T03:42:20;11.05;;;7.35;;
21474;SDS011;10899;53.576;9.960;2022-10-31T03:44:58;11.63;;;7.32;;
21474;SDS011;10899;53.576;9.960;2022-10-31T03:47:26;12.15;;;7.43;;
21474;SDS011;10899;53.576;9.960;2022-10-31T03:49:53;12.02;;;6.82;;
21474;SDS011;10899;53.576;9.960;2022-10-31T03:52:41;11.70;;;6.78;;
21474;SDS011;10899;53.576;9.960;2022-10-31T03:57:57;10.75;;;6.95;;
21474;SDS011;10899;53.576;9.960;2022-10-31T04:00:24;10.82;;;6.53;;
21474;SDS011;10899;53.576;9.960;2022-10-31T04:02:53;10.95;;;6.30;;
21474;SDS011;10899;53.576;9.960;2022-10-31T04:05:22;10.60;;;6.95;;
21474;SDS011;10899;53.576;9.960;2022-10-31T04:07:49;7.35;;;6.25;;
21474;SDS011;10899;53.576;9.960;2022-10-31T04:10:18;11.93;;;6.43;;
21474;SDS011;10899;53.576;9.960;2022-10-31T04:12:46;9.77;;;6.70;;
21474;SDS011;10899;53.576;9.960;2022-10-31T04:15:14;12.32;;;6.45;;
21474;SDS011;10899;53.576;9.960;2022-10-31T04:17:41;10.77;;;6.10;;
21474;SDS011;10899;53.576;9.960;2022-10-31T04:20:10;10.85;;;6.50;;
21474;SDS011;10899;53.576;9.960;2022-10-31T04:22:37;9.98;;;6.10;;
21474;SDS011;10899;53.576;9.960;2022-10-31T04:25:04;9.77;;;6.35;;
21474;SDS011;10899;53.576;9.960;2022-10-31T04:27:30;9.57;;;6.63;;
21474;SDS011;10899;53.576;9.960;2022-10-31T04:29:57;10.93;;;6.10;;
21474;SDS011;10899;53.576;9.960;2022-10-31T04:32:24;8.40;;;5.63;;
21474;SDS011;10899;53.576;9.960;2022-10-31T04:34:51;11.35;;;5.88;;
21474;SDS011;10899;53.576;9.960;2022-10-31T04:37:18;11.18;;;5.97;;
21474;SDS011;10899;53.576;9.960;2022-10-31T04:39:44;11.80;;;5.70;;
21474;SDS011;10899;53.576;9.960;2022-10-31T04:42:11;12.55;;;6.25;;
21474;SDS011;10899;53.576;9.960;2022-10-31T04:44:37;8.30;;;5.57;;
21474;SDS011;10899;53.576;9.960;2022-10-31T04:47:04;10.05;;;5.20;;
21474;SDS011;10899;53.576;9.960;2022-10-31T04:49:30;11.57;;;6.35;;
21474;SDS011;10899;53.576;9.960;2022-10-31T04:51:57;9.93;;;5.65;;
21474;SDS011;10899;53.576;9.960;2022-10-31T04:54:23;11.48;;;5.90;;
21474;SDS011;10899;53.576;9.960;2022-10-31T04:56:50;8.98;;;5.38;;
21474;SDS011;10899;53.576;9.960;2022-10-31T04:59:16;8.77;;;5.07;;
21474;SDS011;10899;53.576;9.960;2022-10-31T05:01:43;9.00;;;4.80;;
21474;SDS011;10899;53.576;9.960;2022-10-31T05:04:09;9.98;;;5.32;;
21474;SDS011;10899;53.576;9.960;2022-10-31T05:06:36;8.65;;;5.18;;
21474;SDS011;10899;53.576;9.960;2022-10-31T05:09:02;9.50;;;5.63;;
21474;SDS011;10899;53.576;9.960;2022-10-31T05:11:29;9.35;;;5.03;;
21474;SDS011;10899;53.576;9.960;2022-10-31T05:13:56;10.77;;;5.30;;
21474;SDS011;10899;53.576;9.960;2022-10-31T05:16:22;6.70;;;4.63;;
21474;SDS011;10899;53.576;9.960;2022-10-31T05:18:49;9.18;;;5.07;;
21474;SDS011;10899;53.576;9.960;2022-10-31T05:21:15;6.55;;;4.75;;
21474;SDS011;10899;53.576;9.960;2022-10-31T05:23:42;9.15;;;4.70;;
21474;SDS011;10899;53.576;9.960;2022-10-31T05:26:08;10.38;;;5.78;;
21474;SDS011;10899;53.576;9.960;2022-10-31T05:28:35;8.15;;;4.70;;
21474;SDS011;10899;53.576;9.960;2022-10-31T05:31:01;8.38;;;5.05;;
21474;SDS011;10899;53.576;9.960;2022-10-31T05:33:28;9.00;;;5.15;;
21474;SDS011;10899;53.576;9.960;2022-10-31T05:35:55;7.18;;;4.70;;
21474;SDS011;10899;53.576;9.960;2022-10-31T05:38:21;7.10;;;4.80;;
21474;SDS011;10899;53.576;9.960;2022-10-31T05:40:48;7.50;;;4.47;;
21474;SDS011;10899;53.576;9.960;2022-10-31T05:43:14;6.15;;;4.30;;
21474;SDS011;10899;53.576;9.960;2022-10-31T05:45:41;7.70;;;4.60;;
21474;SDS011;10899;53.576;9.960;2022-10-31T05:48:07;8.75;;;4.30;;
21474;SDS011;10899;53.576;9.960;2022-10-31T05:50:34;6.55;;;4.22;;
21474;SDS011;10899;53.576;9.960;2022-10-31T05:53:02;11.63;;;4.78;;
21474;SDS011;10899;53.576;9.960;2022-10-31T05:55:29;7.57;;;4.53;;
21474;SDS011;10899;53.576;9.960;2022-10-31T05:57:55;8.65;;;4.25;;
21474;SDS011;10899;53.576;9.960;2022-10-31T06:00:23;7.38;;;4.60;;
21474;SDS011;10899;53.576;9.960;2022-10-31T06:02:57;7.50;;;4.35;;
21474;SDS011;10899;53.576;9.960;2022-10-31T06:05:24;6.93;;;4.18;;
21474;SDS011;10899;53.576;9.960;2022-10-31T06:07:50;7.55;;;4.28;;
21474;SDS011;10899;53.576;9.960;2022-10-31T06:10:17;6.68;;;3.85;;
21474;SDS011;10899;53.576;9.960;2022-10-31T06:12:46;6.45;;;3.92;;
21474;SDS011;10899;53.576;9.960;2022-10-31T06:15:13;9.07;;;4.07;;
21474;SDS011;10899;53.576;9.960;2022-10-31T06:17:39;5.22;;;3.75;;
21474;SDS011;10899;53.576;9.960;2022-10-31T06:20:06;7.85;;;3.90;;
21474;SDS011;10899;53.576;9.960;2022-10-31T06:22:33;7.75;;;4.13;;
21474;SDS011;10899;53.576;9.960;2022-10-31T06:24:59;5.57;;;4.00;;
21474;SDS011;10899;53.576;9.960;2022-10-31T06:27:26;7.60;;;3.90;;
21474;SDS011;10899;53.576;9.960;2022-10-31T06:29:53;7.28;;;4.07;;
21474;SDS011;10899;53.576;9.960;2022-10-31T06:32:19;6.35;;;4.07;;
21474;SDS011;10899;53.576;9.960;2022-10-31T06:34:46;6.88;;;4.13;;
21474;SDS011;10899;53.576;9.960;2022-10-31T06:37:16;7.65;;;4.15;;
21474;SDS011;10899;53.576;9.960;2022-10-31T06:39:42;7.32;;;3.92;;
21474;SDS011;10899;53.576;9.960;2022-10-31T06:42:09;5.40;;;3.90;;
21474;SDS011;10899;53.576;9.960;2022-10-31T06:44:35;8.82;;;3.95;;
21474;SDS011;10899;53.576;9.960;2022-10-31T06:47:02;7.47;;;3.80;;
21474;SDS011;10899;53.576;9.960;2022-10-31T06:49:28;6.38;;;3.72;;
21474;SDS011;10899;53.576;9.960;2022-10-31T06:51:55;5.03;;;3.42;;
21474;SDS011;10899;53.576;9.960;2022-10-31T06:54:21;8.45;;;4.22;;
21474;SDS011;10899;53.576;9.960;2022-10-31T06:56:48;5.60;;;3.45;;
21474;SDS011;10899;53.576;9.960;2022-10-31T06:59:15;7.55;;;3.97;;
21474;SDS011;10899;53.576;9.960;2022-10-31T07:01:41;6.22;;;3.53;;
21474;SDS011;10899;53.576;9.960;2022-10-31T07:04:11;6.20;;;3.95;;
21474;SDS011;10899;53.576;9.960;2022-10-31T07:06:38;5.70;;;3.47;;
21474;SDS011;10899;53.576;9.960;2022-10-31T07:09:04;6.15;;;3.80;;
21474;SDS011;10899;53.576;9.960;2022-10-31T07:11:31;6.53;;;3.47;;
21474;SDS011;10899;53.576;9.960;2022-10-31T07:13:58;8.65;;;3.90;;
21474;SDS011;10899;53.576;9.960;2022-10-31T07:16:25;4.93;;;3.40;;
21474;SDS011;10899;53.576;9.960;2022-10-31T07:18:52;7.15;;;4.05;;
21474;SDS011;10899;53.576;9.960;2022-10-31T07:21:18;5.93;;;3.30;;
21474;SDS011;10899;53.576;9.960;2022-10-31T07:23:47;7.68;;;3.45;;
21474;SDS011;10899;53.576;9.960;2022-10-31T07:26:14;6.28;;;3.10;;
21474;SDS011;10899;53.576;9.960;2022-10-31T07:28:40;5.30;;;3.42;;
21474;SDS011;10899;53.576;9.960;2022-10-31T07:31:07;5.15;;;3.40;;
21474;SDS011;10899;53.576;9.960;2022-10-31T07:33:33;5.78;;;3.33;;
21474;SDS011;10899;53.576;9.960;2022-10-31T07:36:00;6.43;;;3.35;;
21474;SDS011;10899;53.576;9.960;2022-10-31T07:38:26;5.38;;;3.30;;
21474;SDS011;10899;53.576;9.960;2022-10-31T07:40:53;7.20;;;3.65;;
21474;SDS011;10899;53.576;9.960;2022-10-31T07:43:20;5.25;;;3.00;;
21474;SDS011;10899;53.576;9.960;2022-10-31T07:45:50;5.10;;;3.30;;
21474;SDS011;10899;53.576;9.960;2022-10-31T07:48:17;4.82;;;3.00;;
21474;SDS011;10899;53.576;9.960;2022-10-31T07:50:43;5.82;;;3.30;;
21474;SDS011;10899;53.576;9.960;2022-10-31T07:53:14;6.78;;;3.42;;
21474;SDS011;10899;53.576;9.960;2022-10-31T07:55:40;5.15;;;3.05;;
21474;SDS011;10899;53.576;9.960;2022-10-31T07:58:11;5.60;;;3.40;;
21474;SDS011;10899;53.576;9.960;2022-10-31T08:00:39;6.30;;;3.35;;
21474;SDS011;10899;53.576;9.960;2022-10-31T08:03:07;6.25;;;3.55;;
21474;SDS011;10899;53.576;9.960;2022-10-31T08:05:34;5.78;;;3.25;;
21474;SDS011;10899;53.576;9.960;2022-10-31T08:08:00;7.75;;;3.50;;
21474;SDS011;10899;53.576;9.960;2022-10-31T08:10:27;6.30;;;3.42;;
21474;SDS011;10899;53.576;9.960;2022-10-31T08:12:54;6.40;;;3.15;;
21474;SDS011;10899;53.576;9.960;2022-10-31T08:15:21;4.88;;;3.28;;
21474;SDS011;10899;53.576;9.960;2022-10-31T08:17:48;5.45;;;2.85;;
21474;SDS011;10899;53.576;9.960;2022-10-31T08:20:15;4.72;;;3.10;;
21474;SDS011;10899;53.576;9.960;2022-10-31T08:22:41;6.90;;;3.10;;
21474;SDS011;10899;53.576;9.960;2022-10-31T08:25:08;3.92;;;2.72;;
21474;SDS011;10899;53.576;9.960;2022-10-31T08:27:35;5.72;;;3.10;;
21474;SDS011;10899;53.576;9.960;2022-10-31T08:30:01;6.40;;;2.95;;
21474;SDS011;10899;53.576;9.960;2022-10-31T08:32:28;5.32;;;3.15;;
21474;SDS011;10899;53.576;9.960;2022-10-31T08:34:54;6.03;;;3.30;;
21474;SDS011;10899;53.576;9.960;2022-10-31T08:37:21;5.80;;;3.10;;
21474;SDS011;10899;53.576;9.960;2022-10-31T08:39:47;6.72;;;3.28;;
21474;SDS011;10899;53.576;9.960;2022-10-31T08:42:14;6.55;;;3.60;;
21474;SDS011;10899;53.576;9.960;2022-10-31T08:44:40;7.05;;;3.70;;
21474;SDS011;10899;53.576;9.960;2022-10-31T08:47:07;5.60;;;2.85;;
21474;SDS011;10899;53.576;9.960;2022-10-31T08:49:33;6.63;;;2.67;;
21474;SDS011;10899;53.576;9.960;2022-10-31T08:52:00;5.35;;;3.17;;
21474;SDS011;10899;53.576;9.960;2022-10-31T08:54:27;5.05;;;2.85;;
21474;SDS011;10899;53.576;9.960;2022-10-31T08:56:54;5.30;;;3.13;;
21474;SDS011;10899;53.576;9.960;2022-10-31T08:59:21;6.43;;;3.20;;
21474;SDS011;10899;53.576;9.960;2022-10-31T09:01:47;6.20;;;2.97;;
21474;SDS011;10899;53.576;9.960;2022-10-31T09:04:14;3.97;;;2.72;;
21474;SDS011;10899;53.576;9.960;2022-10-31T09:06:40;4.30;;;2.95;;
21474;SDS011;10899;53.576;9.960;2022-10-31T09:09:07;5.47;;;3.13;;
21474;SDS011;10899;53.576;9.960;2022-10-31T09:11:33;7.00;;;3.17;;
21474;SDS011;10899;53.576;9.960;2022-10-31T09:14:00;4.78;;;2.45;;
21474;SDS011;10899;53.576;9.960;2022-10-31T09:16:26;5.30;;;2.90;;
21474;SDS011;10899;53.576;9.960;2022-10-31T09:18:53;4.25;;;2.55;;
21474;SDS011;10899;53.576;9.960;2022-10-31T09:21:20;4.30;;;2.35;;
21474;SDS011;10899;53.576;9.960;2022-10-31T09:23:46;5.68;;;2.75;;
21474;SDS011;10899;53.576;9.960;2022-10-31T09:26:13;5.97;;;3.10;;
21474;SDS011;10899;53.576;9.960;2022-10-31T09:28:39;5.78;;;3.08;;
21474;SDS011;10899;53.576;9.960;2022-10-31T09:31:06;4.63;;;2.72;;
21474;SDS011;10899;53.576;9.960;2022-10-31T09:33:33;4.07;;;2.90;;
21474;SDS011;10899;53.576;9.960;2022-10-31T09:35:59;6.10;;;2.97;;
21474;SDS011;10899;53.576;9.960;2022-10-31T09:38:26;5.88;;;3.03;;
21474;SDS011;10899;53.576;9.960;2022-10-31T09:46:06;5.78;;;2.95;;
21474;SDS011;10899;53.576;9.960;2022-10-31T09:53:54;5.22;;;2.78;;
21474;SDS011;10899;53.576;9.960;2022-10-31T09:56:24;4.72;;;2.80;;
21474;SDS011;10899;53.576;9.960;2022-10-31T09:58:52;5.63;;;2.80;;
21474;SDS011;10899;53.576;9.960;2022-10-31T10:03:50;3.70;;;2.60;;
21474;SDS011;10899;53.576;9.960;2022-10-31T10:08:46;4.90;;;2.65;;
21474;SDS011;10899;53.576;9.960;2022-10-31T10:21:51;4.10;;;2.67;;
21474;SDS011;10899;53.576;9.960;2022-10-31T10:24:33;3.90;;;2.38;;
21474;SDS011;10899;53.576;9.960;2022-10-31T10:27:16;4.53;;;2.45;;
21474;SDS011;10899;53.576;9.960;2022-10-31T10:32:23;4.80;;;2.42;;
21474;SDS011;10899;53.576;9.960;2022-10-31T10:35:33;4.90;;;2.70;;
21474;SDS011;10899;53.576;9.960;2022-10-31T10:37:40;3.75;;;2.45;;
21474;SDS011;10899;53.576;9.960;2022-10-31T10:42:34;4.15;;;2.85;;
21474;SDS011;10899;53.576;9.960;2022-10-31T10:45:19;4.70;;;2.33;;
21474;SDS011;10899;53.576;9.960;2022-10-31T10:48:15;4.72;;;2.83;;
21474;SDS011;10899;53.576;9.960;2022-10-31T10:50:46;6.20;;;2.78;;
21474;SDS011;10899;53.576;9.960;2022-10-31T10:53:18;4.20;;;2.50;;
21474;SDS011;10899;53.576;9.960;2022-10-31T10:56:07;5.95;;;2.85;;
21474;SDS011;10899;53.576;9.960;2022-10-31T10:58:35;3.85;;;2.20;;
21474;SDS011;10899;53.576;9.960;2022-10-31T11:01:08;4.43;;;2.50;;
21474;SDS011;10899;53.576;9.960;2022-10-31T11:03:36;5.65;;;2.80;;
21474;SDS011;10899;53.576;9.960;2022-10-31T11:06:02;4.90;;;2.80;;
21474;SDS011;10899;53.576;9.960;2022-10-31T11:08:30;4.95;;;2.72;;
21474;SDS011;10899;53.576;9.960;2022-10-31T11:13:23;4.28;;;2.63;;
21474;SDS011;10899;53.576;9.960;2022-10-31T11:15:53;3.45;;;2.20;;
21474;SDS011;10899;53.576;9.960;2022-10-31T11:18:22;6.65;;;3.08;;
21474;SDS011;10899;53.576;9.960;2022-10-31T11:20:53;4.38;;;2.92;;
21474;SDS011;10899;53.576;9.960;2022-10-31T11:23:21;5.28;;;2.58;;
21474;SDS011;10899;53.576;9.960;2022-10-31T11:28:21;4.32;;;2.40;;
21474;SDS011;10899;53.576;9.960;2022-10-31T11:33:19;3.80;;;2.50;;
21474;SDS011;10899;53.576;9.960;2022-10-31T11:35:46;5.57;;;2.92;;
21474;SDS011;10899;53.576;9.960;2022-10-31T11:38:17;4.10;;;2.30;;
21474;SDS011;10899;53.576;9.960;2022-10-31T11:40:52;4.20;;;2.30;;
21474;SDS011;10899;53.576;9.960;2022-10-31T11:43:19;4.85;;;2.97;;
21474;SDS011;10899;53.576;9.960;2022-10-31T11:45:46;4.20;;;2.50;;
21474;SDS011;10899;53.576;9.960;2022-10-31T11:48:17;2.80;;;2.00;;
21474;SDS011;10899;53.576;9.960;2022-10-31T11:50:55;5.32;;;2.58;;
21474;SDS011;10899;53.576;9.960;2022-10-31T11:53:29;5.63;;;2.65;;
21474;SDS011;10899;53.576;9.960;2022-10-31T11:56:15;5.72;;;2.67;;
21474;SDS011;10899;53.576;9.960;2022-10-31T11:58:42;6.50;;;2.50;;
21474;SDS011;10899;53.576;9.960;2022-10-31T12:01:25;4.32;;;2.20;;
21474;SDS011;10899;53.576;9.960;2022-10-31T12:04:10;4.40;;;2.50;;
21474;SDS011;10899;53.576;9.960;2022-10-31T12:06:38;4.97;;;2.65;;
21474;SDS011;10899;53.576;9.960;2022-10-31T12:14:51;5.20;;;2.58;;
21474;SDS011;10899;53.576;9.960;2022-10-31T12:17:26;4.47;;;2.58;;
21474;SDS011;10899;53.576;9.960;2022-10-31T12:20:13;5.65;;;2.60;;
21474;SDS011;10899;53.576;9.960;2022-10-31T12:25:14;3.60;;;2.33;;
21474;SDS011;10899;53.576;9.960;2022-10-31T12:30:46;5.45;;;2.72;;
21474;SDS011;10899;53.576;9.960;2022-10-31T12:33:37;3.90;;;2.28;;
21474;SDS011;10899;53.576;9.960;2022-10-31T12:38:45;5.85;;;2.65;;
21474;SDS011;10899;53.576;9.960;2022-10-31T12:48:00;3.75;;;2.30;;
21474;SDS011;10899;53.576;9.960;2022-10-31T12:52:47;5.32;;;2.28;;
21474;SDS011;10899;53.576;9.960;2022-10-31T12:58:06;2.95;;;2.17;;
21474;SDS011;10899;53.576;9.960;2022-10-31T13:00:35;5.80;;;2.40;;
21474;SDS011;10899;53.576;9.960;2022-10-31T13:03:23;5.22;;;2.50;;
21474;SDS011;10899;53.576;9.960;2022-10-31T13:05:52;5.65;;;2.65;;
21474;SDS011;10899;53.576;9.960;2022-10-31T13:10:47;4.05;;;2.55;;
21474;SDS011;10899;53.576;9.960;2022-10-31T13:13:19;3.67;;;2.30;;
21474;SDS011;10899;53.576;9.960;2022-10-31T13:15:51;4.93;;;2.35;;
21474;SDS011;10899;53.576;9.960;2022-10-31T13:18:27;5.22;;;2.75;;
21474;SDS011;10899;53.576;9.960;2022-10-31T13:20:55;3.45;;;2.20;;
21474;SDS011;10899;53.576;9.960;2022-10-31T13:23:31;4.65;;;2.58;;
21474;SDS011;10899;53.576;9.960;2022-10-31T13:26:01;3.08;;;2.10;;
21474;SDS011;10899;53.576;9.960;2022-10-31T13:31:25;4.00;;;2.40;;
21474;SDS011;10899;53.576;9.960;2022-10-31T13:33:56;5.32;;;2.53;;
21474;SDS011;10899;53.576;9.960;2022-10-31T13:36:36;3.42;;;2.50;;
21474;SDS011;10899;53.576;9.960;2022-10-31T13:39:11;4.65;;;2.53;;
21474;SDS011;10899;53.576;9.960;2022-10-31T13:44:20;4.70;;;2.20;;
21474;SDS011;10899;53.576;9.960;2022-10-31T13:46:51;3.67;;;2.25;;
21474;SDS011;10899;53.576;9.960;2022-10-31T13:54:36;3.08;;;2.22;;
21474;SDS011;10899;53.576;9.960;2022-10-31T13:57:06;4.22;;;2.45;;
21474;SDS011;10899;53.576;9.960;2022-10-31T13:59:34;5.70;;;2.22;;
21474;SDS011;10899;53.576;9.960;2022-10-31T14:02:12;3.60;;;2.40;;
21474;SDS011;10899;53.576;9.960;2022-10-31T14:04:54;5.00;;;2.45;;
21474;SDS011;10899;53.576;9.960;2022-10-31T14:07:22;4.43;;;2.35;;
21474;SDS011;10899;53.576;9.960;2022-10-31T14:12:23;3.72;;;2.35;;
21474;SDS011;10899;53.576;9.960;2022-10-31T14:14:53;3.83;;;2.25;;
21474;SDS011;10899;53.576;9.960;2022-10-31T14:17:24;4.15;;;2.47;;
21474;SDS011;10899;53.576;9.960;2022-10-31T14:22:37;4.53;;;2.55;;
21474;SDS011;10899;53.576;9.960;2022-10-31T14:27:50;3.42;;;2.47;;
21474;SDS011;10899;53.576;9.960;2022-10-31T14:30:19;4.53;;;2.20;;
21474;SDS011;10899;53.576;9.960;2022-10-31T14:32:51;3.75;;;2.25;;
21474;SDS011;10899;53.576;9.960;2022-10-31T14:35:18;4.70;;;2.30;;
21474;SDS011;10899;53.576;9.960;2022-10-31T14:50:50;2.90;;;1.90;;
21474;SDS011;10899;53.576;9.960;2022-10-31T14:53:23;4.60;;;2.33;;
21474;SDS011;10899;53.576;9.960;2022-10-31T14:55:53;3.92;;;2.00;;
21474;SDS011;10899;53.576;9.960;2022-10-31T14:58:21;3.75;;;1.75;;
21474;SDS011;10899;53.576;9.960;2022-10-31T15:00:50;3.85;;;2.03;;
21474;SDS011;10899;53.576;9.960;2022-10-31T15:03:28;3.20;;;2.05;;
21474;SDS011;10899;53.576;9.960;2022-10-31T15:05:57;2.47;;;1.95;;
21474;SDS011;10899;53.576;9.960;2022-10-31T15:08:35;3.10;;;2.03;;
21474;SDS011;10899;53.576;9.960;2022-10-31T15:11:02;3.50;;;1.90;;
21474;SDS011;10899;53.576;9.960;2022-10-31T15:13:29;2.92;;;2.05;;
21474;SDS011;10899;53.576;9.960;2022-10-31T15:15:56;2.65;;;1.90;;
21474;SDS011;10899;53.576;9.960;2022-10-31T15:18:26;2.83;;;1.70;;
21474;SDS011;10899;53.576;9.960;2022-10-31T15:20:54;5.03;;;1.80;;
21474;SDS011;10899;53.576;9.960;2022-10-31T15:23:24;2.67;;;1.80;;
21474;SDS011;10899;53.576;9.960;2022-10-31T15:25:57;2.75;;;1.55;;
21474;SDS011;10899;53.576;9.960;2022-10-31T15:28:24;2.83;;;1.85;;
21474;SDS011;10899;53.576;9.960;2022-10-31T15:30:55;2.55;;;1.60;;
21474;SDS011;10899;53.576;9.960;2022-10-31T15:33:26;2.72;;;1.60;;
21474;SDS011;10899;53.576;9.960;2022-10-31T15:35:57;3.33;;;1.92;;
21474;SDS011;10899;53.576;9.960;2022-10-31T15:38:25;2.92;;;1.85;;
21474;SDS011;10899;53.576;9.960;2022-10-31T15:40:57;4.57;;;1.85;;
21474;SDS011;10899;53.576;9.960;2022-10-31T15:43:27;6.07;;;1.92;;
21474;SDS011;10899;53.576;9.960;2022-10-31T15:45:57;3.90;;;1.75;;
21474;SDS011;10899;53.576;9.960;2022-10-31T15:48:24;5.07;;;1.85;;
21474;SDS011;10899;53.576;9.960;2022-10-31T15:50:52;2.58;;;1.55;;
21474;SDS011;10899;53.576;9.960;2022-10-31T15:53:26;2.58;;;1.50;;
21474;SDS011;10899;53.576;9.960;2022-10-31T15:55:54;2.90;;;1.63;;
21474;SDS011;10899;53.576;9.960;2022-10-31T15:58:22;3.53;;;1.75;;
21474;SDS011;10899;53.576;9.960;2022-10-31T16:00:59;3.05;;;1.60;;
21474;SDS011;10899;53.576;9.960;2022-10-31T16:03:30;3.92;;;1.88;;
21474;SDS011;10899;53.576;9.960;2022-10-31T16:05:57;2.03;;;1.67;;
21474;SDS011;10899;53.576;9.960;2022-10-31T16:13:28;4.07;;;1.88;;
21474;SDS011;10899;53.576;9.960;2022-10-31T16:16:02;5.55;;;2.15;;
21474;SDS011;10899;53.576;9.960;2022-10-31T16:18:30;1.50;;;1.38;;
21474;SDS011;10899;53.576;9.960;2022-10-31T16:21:02;3.60;;;1.83;;
21474;SDS011;10899;53.576;9.960;2022-10-31T16:23:28;3.50;;;1.70;;
21474;SDS011;10899;53.576;9.960;2022-10-31T16:25:55;3.55;;;1.73;;
21474;SDS011;10899;53.576;9.960;2022-10-31T16:28:23;3.03;;;1.88;;
21474;SDS011;10899;53.576;9.960;2022-10-31T16:30:51;2.13;;;1.60;;
21474;SDS011;10899;53.576;9.960;2022-10-31T16:35:51;3.50;;;1.70;;
21474;SDS011;10899;53.576;9.960;2022-10-31T16:38:18;4.32;;;1.83;;
21474;SDS011;10899;53.576;9.960;2022-10-31T16:40:44;3.63;;;1.90;;
21474;SDS011;10899;53.576;9.960;2022-10-31T16:43:12;5.50;;;2.20;;
21474;SDS011;10899;53.576;9.960;2022-10-31T16:45:43;5.32;;;2.30;;
21474;SDS011;10899;53.576;9.960;2022-10-31T16:48:14;3.35;;;1.77;;
21474;SDS011;10899;53.576;9.960;2022-10-31T16:50:41;4.32;;;2.30;;
21474;SDS011;10899;53.576;9.960;2022-10-31T16:53:09;4.70;;;1.90;;
21474;SDS011;10899;53.576;9.960;2022-10-31T16:55:43;4.22;;;1.88;;
21474;SDS011;10899;53.576;9.960;2022-10-31T16:58:15;4.28;;;1.85;;
21474;SDS011;10899;53.576;9.960;2022-10-31T17:00:42;3.38;;;1.88;;
21474;SDS011;10899;53.576;9.960;2022-10-31T17:03:09;4.85;;;2.13;;
21474;SDS011;10899;53.576;9.960;2022-10-31T17:05:36;3.85;;;2.22;;
21474;SDS011;10899;53.576;9.960;2022-10-31T17:08:02;4.90;;;2.42;;
21474;SDS011;10899;53.576;9.960;2022-10-31T17:10:29;3.88;;;2.47;;
21474;SDS011;10899;53.576;9.960;2022-10-31T17:12:56;6.35;;;2.25;;
21474;SDS011;10899;53.576;9.960;2022-10-31T17:15:25;7.90;;;2.55;;
21474;SDS011;10899;53.576;9.960;2022-10-31T17:17:51;8.38;;;2.75;;